Anchorage, Alaska
Current Conditions -  °F | °C
As of 3:53 PM on Thursday 18 Dec 2014 (Local Time) from PANC Reporting Station
Broken Clouds Broken Clouds  
Wind Chill: 21°   Ceiling: 22000
Heat Index: 21°   Visibility: 10mi
Dew Point: 16°   Wind: 3mph
Humidity: 81%   Direction: 70°ENE
Pressure: 29.37"   Gusts: NA
Location:  61.16°N, 150.01°W
Report Text: PANC 190053Z 07003KT 10SM FEW120 BKN220 M06/M09 A2937 RMK AO2 SLP949 T10611089 $
Loading
Personal Weather Stations






























Interactive Weather Map New forecast layout! Learn more

10-Day Weather Forecast

Advertisements
Track Severe Weather on mobile